Terminal Aerodrome Forecast
Issued by NWS

Home | Current Version | Previous Version | Text Only | Print | Product List | Glossary On
Versions: 1 2 3 4 5 6 7 8 9 10 11 12 13 14
000
FTAK31 PAFA 142338
TAFATA
TAF
PATA 142338Z 1500/1524 00000KT 3/4SM BR OVC003
     FM150700 00000KT 1 1/2SM -SN BR OVC004
     FM151500 00000KT 5SM -SN BR OVC004=

USA.gov is the U.S. government's official web portal to all federal, state and local government web resources and services.